sensor_id;sensor_type;location;lat;lon;timestamp;pressure;altitude;pressure_sealevel;temperature;humidity
49178;BME280;35016;55.674;37.468;2024-03-17T00:01:38;99233.28;;;0.82;56.39
49178;BME280;35016;55.674;37.468;2024-03-17T00:04:07;99227.53;;;0.78;56.15
49178;BME280;35016;55.674;37.468;2024-03-17T00:06:33;99217.06;;;0.77;56.31
49178;BME280;35016;55.674;37.468;2024-03-17T00:08:59;99222.63;;;0.75;56.48
49178;BME280;35016;55.674;37.468;2024-03-17T00:11:27;99216.25;;;0.76;56.45
49178;BME280;35016;55.674;37.468;2024-03-17T00:13:53;99216.25;;;0.76;56.69
49178;BME280;35016;55.674;37.468;2024-03-17T00:16:19;99209.69;;;0.72;56.63
49178;BME280;35016;55.674;37.468;2024-03-17T00:18:45;99217.47;;;0.74;56.43
49178;BME280;35016;55.674;37.468;2024-03-17T00:21:14;99217.06;;;0.70;56.94
49178;BME280;35016;55.674;37.468;2024-03-17T00:23:40;99216.88;;;0.72;56.63
49178;BME280;35016;55.674;37.468;2024-03-17T00:26:06;99209.25;;;0.69;56.92
49178;BME280;35016;55.674;37.468;2024-03-17T00:28:32;99206.19;;;0.65;56.96
49178;BME280;35016;55.674;37.468;2024-03-17T00:30:58;99202.09;;;0.69;57.24
49178;BME280;35016;55.674;37.468;2024-03-17T00:33:24;99211.94;;;0.69;57.06
49178;BME280;35016;55.674;37.468;2024-03-17T00:35:50;99210.91;;;0.70;57.14
49178;BME280;35016;55.674;37.468;2024-03-17T00:38:17;99219.13;;;0.68;57.01
49178;BME280;35016;55.674;37.468;2024-03-17T00:40:43;99210.28;;;0.68;56.74
49178;BME280;35016;55.674;37.468;2024-03-17T00:43:11;99209.47;;;0.67;57.08
49178;BME280;35016;55.674;37.468;2024-03-17T00:45:40;99204.53;;;0.64;56.78
49178;BME280;35016;55.674;37.468;2024-03-17T00:48:06;99201.06;;;0.64;57.00
49178;BME280;35016;55.674;37.468;2024-03-17T00:50:32;99200.63;;;0.60;57.03
49178;BME280;35016;55.674;37.468;2024-03-17T00:52:58;99207.16;;;0.57;57.33
49178;BME280;35016;55.674;37.468;2024-03-17T00:55:24;99203.06;;;0.55;57.10
49178;BME280;35016;55.674;37.468;2024-03-17T00:57:50;99196.28;;;0.52;57.28
49178;BME280;35016;55.674;37.468;2024-03-17T01:00:16;99196.72;;;0.56;57.47
49178;BME280;35016;55.674;37.468;2024-03-17T01:02:43;99188.91;;;0.54;57.33
49178;BME280;35016;55.674;37.468;2024-03-17T01:05:09;99195.47;;;0.52;57.34
49178;BME280;35016;55.674;37.468;2024-03-17T01:07:36;99196.91;;;0.48;57.60
49178;BME280;35016;55.674;37.468;2024-03-17T01:10:02;99199.16;;;0.44;57.68
49178;BME280;35016;55.674;37.468;2024-03-17T01:12:29;99194.22;;;0.41;57.74
49178;BME280;35016;55.674;37.468;2024-03-17T01:14:55;99180.06;;;0.34;57.67
49178;BME280;35016;55.674;37.468;2024-03-17T01:17:21;99185.81;;;0.38;57.82
49178;BME280;35016;55.674;37.468;2024-03-17T01:19:47;99187.66;;;0.37;57.91
49178;BME280;35016;55.674;37.468;2024-03-17T01:22:14;99182.72;;;0.34;57.65
49178;BME280;35016;55.674;37.468;2024-03-17T01:24:40;99186.00;;;0.36;57.96
49178;BME280;35016;55.674;37.468;2024-03-17T01:27:11;99191.34;;;0.36;57.97
49178;BME280;35016;55.674;37.468;2024-03-17T01:29:40;99178.41;;;0.33;57.71
49178;BME280;35016;55.674;37.468;2024-03-17T01:32:06;99179.25;;;0.34;57.81
49178;BME280;35016;55.674;37.468;2024-03-17T01:34:32;99181.91;;;0.34;57.75
49178;BME280;35016;55.674;37.468;2024-03-17T01:36:58;99180.69;;;0.36;57.83
49178;BME280;35016;55.674;37.468;2024-03-17T01:39:24;99181.69;;;0.35;57.92
49178;BME280;35016;55.674;37.468;2024-03-17T01:41:50;99153.34;;;0.27;58.24
49178;BME280;35016;55.674;37.468;2024-03-17T01:44:23;99170.84;;;0.37;58.72
49178;BME280;35016;55.674;37.468;2024-03-17T01:46:51;99158.53;;;0.36;58.17
49178;BME280;35016;55.674;37.468;2024-03-17T01:49:17;99162.41;;;0.33;58.34
49178;BME280;35016;55.674;37.468;2024-03-17T01:51:45;99171.44;;;0.32;58.05
49178;BME280;35016;55.674;37.468;2024-03-17T01:54:12;99157.09;;;0.33;58.23
49178;BME280;35016;55.674;37.468;2024-03-17T01:56:39;99159.75;;;0.40;58.54
49178;BME280;35016;55.674;37.468;2024-03-17T01:59:07;99164.88;;;0.41;58.10
49178;BME280;35016;55.674;37.468;2024-03-17T02:01:33;99157.28;;;0.38;58.22
49178;BME280;35016;55.674;37.468;2024-03-17T02:03:59;99148.66;;;0.29;58.25
49178;BME280;35016;55.674;37.468;2024-03-17T02:06:25;99153.19;;;0.29;58.54
49178;BME280;35016;55.674;37.468;2024-03-17T02:08:53;99151.72;;;0.26;58.46
49178;BME280;35016;55.674;37.468;2024-03-17T02:11:31;99158.88;;;0.26;59.32
49178;BME280;35016;55.674;37.468;2024-03-17T02:13:59;99149.84;;;0.20;58.64
49178;BME280;35016;55.674;37.468;2024-03-17T02:16:25;99157.66;;;0.22;58.83
49178;BME280;35016;55.674;37.468;2024-03-17T02:18:56;99150.25;;;0.17;58.74
49178;BME280;35016;55.674;37.468;2024-03-17T02:21:24;99155.59;;;0.17;58.63
49178;BME280;35016;55.674;37.468;2024-03-17T02:23:51;99141.25;;;0.18;58.71
49178;BME280;35016;55.674;37.468;2024-03-17T02:26:17;99133.84;;;0.20;58.67
49178;BME280;35016;55.674;37.468;2024-03-17T02:28:46;99137.53;;;0.19;58.80
49178;BME280;35016;55.674;37.468;2024-03-17T02:31:13;99128.31;;;0.15;59.04
49178;BME280;35016;55.674;37.468;2024-03-17T02:33:39;99136.31;;;0.15;59.02
49178;BME280;35016;55.674;37.468;2024-03-17T02:36:06;99132.19;;;0.13;59.04
49178;BME280;35016;55.674;37.468;2024-03-17T02:38:41;99138.56;;;0.12;59.53
49178;BME280;35016;55.674;37.468;2024-03-17T02:41:26;99129.53;;;0.13;59.21
49178;BME280;35016;55.674;37.468;2024-03-17T02:43:54;99129.75;;;0.11;58.96
49178;BME280;35016;55.674;37.468;2024-03-17T02:46:20;99124.81;;;0.08;59.27
49178;BME280;35016;55.674;37.468;2024-03-17T02:48:50;99119.28;;;0.10;59.22
49178;BME280;35016;55.674;37.468;2024-03-17T02:51:19;99125.44;;;0.10;59.19
49178;BME280;35016;55.674;37.468;2024-03-17T02:53:46;99124.63;;;0.10;59.31
49178;BME280;35016;55.674;37.468;2024-03-17T02:56:14;99122.97;;;0.09;59.19
49178;BME280;35016;55.674;37.468;2024-03-17T02:58:44;99119.88;;;0.05;59.34
49178;BME280;35016;55.674;37.468;2024-03-17T03:01:12;99121.13;;;0.09;59.17
49178;BME280;35016;55.674;37.468;2024-03-17T03:03:38;99127.47;;;0.08;59.27
49178;BME280;35016;55.674;37.468;2024-03-17T03:06:04;99118.47;;;0.09;59.25
49178;BME280;35016;55.674;37.468;2024-03-17T03:08:36;99130.16;;;0.08;59.41
49178;BME280;35016;55.674;37.468;2024-03-17T03:11:09;99124.00;;;0.08;59.46
49178;BME280;35016;55.674;37.468;2024-03-17T03:13:39;99120.31;;;0.09;59.85
49178;BME280;35016;55.674;37.468;2024-03-17T03:16:07;99122.78;;;0.10;59.31
49178;BME280;35016;55.674;37.468;2024-03-17T03:18:37;99115.78;;;0.09;59.68
49178;BME280;35016;55.674;37.468;2024-03-17T03:21:07;99120.31;;;0.09;59.29
49178;BME280;35016;55.674;37.468;2024-03-17T03:23:34;99113.34;;;0.08;59.29
49178;BME280;35016;55.674;37.468;2024-03-17T03:26:01;99112.31;;;0.09;59.52
49178;BME280;35016;55.674;37.468;2024-03-17T03:28:31;99109.03;;;0.13;59.70
49178;BME280;35016;55.674;37.468;2024-03-17T03:31:00;99109.44;;;0.17;59.49
49178;BME280;35016;55.674;37.468;2024-03-17T03:33:26;99108.00;;;0.14;59.39
49178;BME280;35016;55.674;37.468;2024-03-17T03:35:53;99105.97;;;0.16;59.72
49178;BME280;35016;55.674;37.468;2024-03-17T03:38:19;99109.03;;;0.13;59.69
49178;BME280;35016;55.674;37.468;2024-03-17T03:40:45;99102.88;;;0.13;59.58
49178;BME280;35016;55.674;37.468;2024-03-17T03:43:14;99105.97;;;0.16;59.84
49178;BME280;35016;55.674;37.468;2024-03-17T03:45:41;99102.69;;;0.14;59.59
49178;BME280;35016;55.674;37.468;2024-03-17T03:48:07;99102.88;;;0.13;59.70
49178;BME280;35016;55.674;37.468;2024-03-17T03:50:40;99103.09;;;0.11;59.81
49178;BME280;35016;55.674;37.468;2024-03-17T03:53:06;99102.66;;;0.08;59.76
49178;BME280;35016;55.674;37.468;2024-03-17T03:55:32;99104.50;;;0.07;60.04
49178;BME280;35016;55.674;37.468;2024-03-17T03:57:58;99105.75;;;0.05;59.74
49178;BME280;35016;55.674;37.468;2024-03-17T04:00:24;99101.03;;;0.07;60.09
49178;BME280;35016;55.674;37.468;2024-03-17T04:02:55;99093.84;;;0.07;59.78
49178;BME280;35016;55.674;37.468;2024-03-17T04:05:21;99089.13;;;0.03;59.81
49178;BME280;35016;55.674;37.468;2024-03-17T04:07:48;99095.69;;;0.07;59.97
49178;BME280;35016;55.674;37.468;2024-03-17T04:10:15;99095.91;;;0.12;59.90
49178;BME280;35016;55.674;37.468;2024-03-17T04:12:42;99090.78;;;0.17;59.95
49178;BME280;35016;55.674;37.468;2024-03-17T04:15:09;99090.59;;;0.18;59.92
49178;BME280;35016;55.674;37.468;2024-03-17T04:17:36;99094.88;;;0.19;59.77
49178;BME280;35016;55.674;37.468;2024-03-17T04:20:04;99099.00;;;0.22;59.67
49178;BME280;35016;55.674;37.468;2024-03-17T04:22:33;99085.47;;;0.23;60.17
49178;BME280;35016;55.674;37.468;2024-03-17T04:24:59;99091.66;;;0.30;59.98
49178;BME280;35016;55.674;37.468;2024-03-17T04:27:26;99088.38;;;0.35;60.03
49178;BME280;35016;55.674;37.468;2024-03-17T04:29:53;99097.81;;;0.38;59.53
49178;BME280;35016;55.674;37.468;2024-03-17T04:32:20;99082.00;;;0.36;59.60
49178;BME280;35016;55.674;37.468;2024-03-17T04:34:47;99090.41;;;0.40;59.61
49178;BME280;35016;55.674;37.468;2024-03-17T04:37:13;99091.44;;;0.45;59.87
49178;BME280;35016;55.674;37.468;2024-03-17T04:39:40;99086.72;;;0.47;59.81
49178;BME280;35016;55.674;37.468;2024-03-17T04:42:09;99089.19;;;0.55;59.77
49178;BME280;35016;55.674;37.468;2024-03-17T04:44:35;99088.78;;;0.58;59.53
49178;BME280;35016;55.674;37.468;2024-03-17T04:47:01;99079.16;;;0.64;59.85
49178;BME280;35016;55.674;37.468;2024-03-17T04:49:37;99079.34;;;0.69;59.95
49178;BME280;35016;55.674;37.468;2024-03-17T04:52:04;99076.06;;;0.74;59.19
49178;BME280;35016;55.674;37.468;2024-03-17T04:54:31;99072.56;;;0.80;59.42
49178;BME280;35016;55.674;37.468;2024-03-17T04:56:57;99078.50;;;0.88;59.35
49178;BME280;35016;55.674;37.468;2024-03-17T04:59:23;99087.13;;;0.97;59.64
49178;BME280;35016;55.674;37.468;2024-03-17T05:01:50;99080.13;;;1.03;59.50
49178;BME280;35016;55.674;37.468;2024-03-17T05:04:16;99085.44;;;1.09;58.97
49178;BME280;35016;55.674;37.468;2024-03-17T05:06:42;99085.44;;;1.16;59.37
49178;BME280;35016;55.674;37.468;2024-03-17T05:09:13;99081.13;;;1.21;59.04
49178;BME280;35016;55.674;37.468;2024-03-17T05:11:40;99075.75;;;1.28;58.97
49178;BME280;35016;55.674;37.468;2024-03-17T05:14:06;99081.47;;;1.38;58.55
49178;BME280;35016;55.674;37.468;2024-03-17T05:16:32;99080.44;;;1.46;59.05
49178;BME280;35016;55.674;37.468;2024-03-17T05:18:58;99088.00;;;1.55;58.86
49178;BME280;35016;55.674;37.468;2024-03-17T05:21:24;99085.09;;;1.64;58.86
49178;BME280;35016;55.674;37.468;2024-03-17T05:23:52;99085.47;;;1.67;58.29
49178;BME280;35016;55.674;37.468;2024-03-17T05:26:18;99089.56;;;1.70;58.74
49178;BME280;35016;55.674;37.468;2024-03-17T05:28:44;99096.16;;;1.74;58.69
49178;BME280;35016;55.674;37.468;2024-03-17T05:31:10;99091.38;;;1.82;58.69
49178;BME280;35016;55.674;37.468;2024-03-17T05:33:40;99090.31;;;1.90;58.61
49178;BME280;35016;55.674;37.468;2024-03-17T05:36:07;99093.34;;;2.00;58.56
49178;BME280;35016;55.674;37.468;2024-03-17T05:38:33;99093.72;;;2.10;58.38
49178;BME280;35016;55.674;37.468;2024-03-17T05:41:00;99104.97;;;2.19;58.30
49178;BME280;35016;55.674;37.468;2024-03-17T05:43:28;99098.53;;;2.27;58.21
49178;BME280;35016;55.674;37.468;2024-03-17T05:45:58;99103.38;;;2.43;58.37
49178;BME280;35016;55.674;37.468;2024-03-17T05:48:25;99111.31;;;2.56;57.98
49178;BME280;35016;55.674;37.468;2024-03-17T05:50:51;99106.69;;;2.70;57.74
49178;BME280;35016;55.674;37.468;2024-03-17T05:53:18;99099.13;;;2.85;57.50
49178;BME280;35016;55.674;37.468;2024-03-17T05:55:44;99107.66;;;3.00;57.39
49178;BME280;35016;55.674;37.468;2024-03-17T05:58:10;99110.19;;;3.14;57.48
49178;BME280;35016;55.674;37.468;2024-03-17T06:00:38;99107.41;;;3.27;57.37
49178;BME280;35016;55.674;37.468;2024-03-17T06:03:05;99111.19;;;3.37;57.38
49178;BME280;35016;55.674;37.468;2024-03-17T06:05:33;99101.63;;;3.48;57.27
49178;BME280;35016;55.674;37.468;2024-03-17T06:08:04;99110.19;;;3.57;57.09
49178;BME280;35016;55.674;37.468;2024-03-17T06:10:32;99098.69;;;3.68;56.89
49178;BME280;35016;55.674;37.468;2024-03-17T06:12:58;99092.38;;;3.81;56.71
49178;BME280;35016;55.674;37.468;2024-03-17T06:15:25;99094.88;;;3.94;56.80
49178;BME280;35016;55.674;37.468;2024-03-17T06:17:54;99095.53;;;4.08;56.54
49178;BME280;35016;55.674;37.468;2024-03-17T06:20:21;99094.50;;;4.20;56.69
49178;BME280;35016;55.674;37.468;2024-03-17T06:22:49;99084.03;;;4.30;56.38
49178;BME280;35016;55.674;37.468;2024-03-17T06:25:16;99091.91;;;4.44;56.10
49178;BME280;35016;55.674;37.468;2024-03-17T06:27:42;99092.16;;;4.54;56.08
49178;BME280;35016;55.674;37.468;2024-03-17T06:30:14;99086.00;;;4.65;55.60
49178;BME280;35016;55.674;37.468;2024-03-17T06:32:41;99077.50;;;4.68;55.44
49178;BME280;35016;55.674;37.468;2024-03-17T06:35:08;99084.03;;;4.84;55.96
49178;BME280;35016;55.674;37.468;2024-03-17T06:37:35;99081.59;;;4.94;55.28
49178;BME280;35016;55.674;37.468;2024-03-17T06:40:02;99086.16;;;5.05;55.46
49178;BME280;35016;55.674;37.468;2024-03-17T06:42:32;99080.75;;;5.17;54.89
49178;BME280;35016;55.674;37.468;2024-03-17T06:44:58;99083.94;;;5.25;55.29
49178;BME280;35016;55.674;37.468;2024-03-17T06:47:24;99074.34;;;5.29;54.93
49178;BME280;35016;55.674;37.468;2024-03-17T06:49:51;99087.53;;;5.43;54.75
49178;BME280;35016;55.674;37.468;2024-03-17T06:52:17;99067.16;;;5.47;54.54
49178;BME280;35016;55.674;37.468;2024-03-17T06:54:43;99084.94;;;5.59;55.10
49178;BME280;35016;55.674;37.468;2024-03-17T06:57:09;99073.31;;;5.71;54.50
49178;BME280;35016;55.674;37.468;2024-03-17T06:59:35;99074.59;;;5.80;54.37
49178;BME280;35016;55.674;37.468;2024-03-17T07:02:01;99074.34;;;5.93;53.82
49178;BME280;35016;55.674;37.468;2024-03-17T07:04:27;99075.91;;;6.06;54.15
49178;BME280;35016;55.674;37.468;2024-03-17T07:06:53;99073.44;;;6.16;53.72
49178;BME280;35016;55.674;37.468;2024-03-17T07:09:19;99068.72;;;6.23;53.56
49178;BME280;35016;55.674;37.468;2024-03-17T07:11:45;99073.47;;;6.33;54.20
49178;BME280;35016;55.674;37.468;2024-03-17T07:14:11;99065.81;;;6.41;54.07
49178;BME280;35016;55.674;37.468;2024-03-17T07:16:37;99072.50;;;6.56;53.99
49178;BME280;35016;55.674;37.468;2024-03-17T07:19:03;99063.31;;;6.68;53.87
49178;BME280;35016;55.674;37.468;2024-03-17T07:21:30;99066.25;;;6.83;53.47
49178;BME280;35016;55.674;37.468;2024-03-17T07:24:00;99057.25;;;6.95;53.27
49178;BME280;35016;55.674;37.468;2024-03-17T07:26:30;99065.19;;;7.01;53.30
49178;BME280;35016;55.674;37.468;2024-03-17T07:28:56;99062.13;;;7.14;53.02
49178;BME280;35016;55.674;37.468;2024-03-17T07:31:22;99057.97;;;7.24;52.88
49178;BME280;35016;55.674;37.468;2024-03-17T07:33:48;99064.31;;;7.34;52.76
49178;BME280;35016;55.674;37.468;2024-03-17T07:36:15;99057.34;;;7.38;52.87
49178;BME280;35016;55.674;37.468;2024-03-17T07:38:41;99064.13;;;7.41;52.41
49178;BME280;35016;55.674;37.468;2024-03-17T07:41:08;99064.75;;;7.48;52.77
49178;BME280;35016;55.674;37.468;2024-03-17T07:43:36;99058.38;;;7.54;52.74
49178;BME280;35016;55.674;37.468;2024-03-17T07:46:05;99045.50;;;7.61;52.53
49178;BME280;35016;55.674;37.468;2024-03-17T07:48:36;99047.75;;;7.69;52.19
49178;BME280;35016;55.674;37.468;2024-03-17T07:51:03;99047.28;;;7.77;52.19
49178;BME280;35016;55.674;37.468;2024-03-17T07:53:31;99051.38;;;7.80;52.09
49178;BME280;35016;55.674;37.468;2024-03-17T07:56:02;99053.03;;;7.81;52.04
49178;BME280;35016;55.674;37.468;2024-03-17T07:58:31;99049.81;;;7.84;52.08
49178;BME280;35016;55.674;37.468;2024-03-17T08:01:17;99047.75;;;7.91;51.46
49178;BME280;35016;55.674;37.468;2024-03-17T08:03:47;99050.19;;;7.93;51.94
49178;BME280;35016;55.674;37.468;2024-03-17T08:06:21;99048.03;;;7.95;52.09
49178;BME280;35016;55.674;37.468;2024-03-17T08:08:48;99046.78;;;8.02;51.92
49178;BME280;35016;55.674;37.468;2024-03-17T08:11:13;99046.00;;;8.07;51.69
49178;BME280;35016;55.674;37.468;2024-03-17T08:13:39;99047.16;;;8.11;51.74
49178;BME280;35016;55.674;37.468;2024-03-17T08:16:07;99037.97;;;8.12;51.58
49178;BME280;35016;55.674;37.468;2024-03-17T08:18:34;99041.75;;;8.11;51.63
49178;BME280;35016;55.674;37.468;2024-03-17T08:21:01;99038.53;;;8.14;51.46
49178;BME280;35016;55.674;37.468;2024-03-17T08:23:33;99039.09;;;8.16;51.30
49178;BME280;35016;55.674;37.468;2024-03-17T08:26:00;99030.75;;;8.18;51.33
49178;BME280;35016;55.674;37.468;2024-03-17T08:28:29;99032.31;;;8.14;51.02
49178;BME280;35016;55.674;37.468;2024-03-17T08:30:57;99039.09;;;8.16;51.46
49178;BME280;35016;55.674;37.468;2024-03-17T08:33:24;99043.19;;;8.19;51.22
49178;BME280;35016;55.674;37.468;2024-03-17T08:35:57;99038.88;;;8.23;51.02
49178;BME280;35016;55.674;37.468;2024-03-17T08:38:25;99029.97;;;8.22;51.04
49178;BME280;35016;55.674;37.468;2024-03-17T08:40:56;99039.22;;;8.31;50.78
49178;BME280;35016;55.674;37.468;2024-03-17T08:43:23;99033.84;;;8.31;51.00
49178;BME280;35016;55.674;37.468;2024-03-17T08:46:00;99032.59;;;8.39;50.27
49178;BME280;35016;55.674;37.468;2024-03-17T08:48:38;99033.91;;;8.36;50.06
49178;BME280;35016;55.674;37.468;2024-03-17T08:51:06;99027.34;;;8.32;50.63
49178;BME280;35016;55.674;37.468;2024-03-17T08:53:32;99026.53;;;8.32;50.73
49178;BME280;35016;55.674;37.468;2024-03-17T08:56:25;99032.34;;;8.41;50.44
49178;BME280;35016;55.674;37.468;2024-03-17T08:58:51;99027.69;;;8.36;50.42
49178;BME280;35016;55.674;37.468;2024-03-17T09:09:19;99037.56;;;8.25;49.98
49178;BME280;35016;55.674;37.468;2024-03-17T09:12:50;99025.22;;;8.07;49.86
49178;BME280;35016;55.674;37.468;2024-03-17T09:15:22;99019.47;;;7.99;50.10
49178;BME280;35016;55.674;37.468;2024-03-17T09:17:51;99030.38;;;8.09;50.50
49178;BME280;35016;55.674;37.468;2024-03-17T09:20:18;99009.94;;;7.91;50.50
49178;BME280;35016;55.674;37.468;2024-03-17T09:22:44;99025.44;;;8.01;50.85
49178;BME280;35016;55.674;37.468;2024-03-17T09:25:11;99036.03;;;8.07;50.55
49178;BME280;35016;55.674;37.468;2024-03-17T09:27:53;99024.09;;;8.03;50.75
49178;BME280;35016;55.674;37.468;2024-03-17T09:30:19;99028.16;;;8.06;50.65
49178;BME280;35016;55.674;37.468;2024-03-17T09:32:56;99025.81;;;8.10;50.67
49178;BME280;35016;55.674;37.468;2024-03-17T09:35:33;99015.88;;;8.15;50.30
49178;BME280;35016;55.674;37.468;2024-03-17T09:38:03;99027.63;;;8.31;50.64
49178;BME280;35016;55.674;37.468;2024-03-17T09:40:30;99021.94;;;8.32;50.16
49178;BME280;35016;55.674;37.468;2024-03-17T09:42:57;99027.53;;;8.48;50.19
49178;BME280;35016;55.674;37.468;2024-03-17T09:45:24;99041.59;;;8.50;49.94
49178;BME280;35016;55.674;37.468;2024-03-17T09:47:52;99028.06;;;8.45;49.87
49178;BME280;35016;55.674;37.468;2024-03-17T09:50:18;99035.91;;;8.46;49.85
49178;BME280;35016;55.674;37.468;2024-03-17T09:52:45;99036.94;;;8.40;50.05
49178;BME280;35016;55.674;37.468;2024-03-17T09:55:17;99035.88;;;8.41;49.77
49178;BME280;35016;55.674;37.468;2024-03-17T09:57:44;99032.91;;;8.43;49.84
49178;BME280;35016;55.674;37.468;2024-03-17T10:00:13;99026.94;;;8.41;49.96
49178;BME280;35016;55.674;37.468;2024-03-17T10:02:45;99029.31;;;8.37;49.55
49178;BME280;35016;55.674;37.468;2024-03-17T10:05:21;99014.50;;;8.40;49.87
49178;BME280;35016;55.674;37.468;2024-03-17T10:07:49;99019.13;;;8.44;49.91
49178;BME280;35016;55.674;37.468;2024-03-17T10:10:20;99020.00;;;8.50;49.67
49178;BME280;35016;55.674;37.468;2024-03-17T10:12:51;99015.41;;;8.50;49.34
49178;BME280;35016;55.674;37.468;2024-03-17T10:15:26;99032.16;;;8.52;49.50
49178;BME280;35016;55.674;37.468;2024-03-17T10:17:52;99006.34;;;8.34;49.27
49178;BME280;35016;55.674;37.468;2024-03-17T10:20:20;99006.97;;;8.42;49.61
49178;BME280;35016;55.674;37.468;2024-03-17T10:23:06;99016.19;;;8.46;49.17
49178;BME280;35016;55.674;37.468;2024-03-17T10:25:41;99011.81;;;8.40;49.62
49178;BME280;35016;55.674;37.468;2024-03-17T10:28:15;99012.28;;;8.36;49.48
49178;BME280;35016;55.674;37.468;2024-03-17T10:30:56;99015.00;;;8.36;49.47
49178;BME280;35016;55.674;37.468;2024-03-17T10:33:26;99015.25;;;8.35;49.29
49178;BME280;35016;55.674;37.468;2024-03-17T10:36:02;99015.50;;;8.33;49.42
49178;BME280;35016;55.674;37.468;2024-03-17T10:38:34;99012.47;;;8.30;49.60
49178;BME280;35016;55.674;37.468;2024-03-17T10:41:04;99006.53;;;8.28;49.36
49178;BME280;35016;55.674;37.468;2024-03-17T10:43:31;98999.50;;;8.27;49.55
49178;BME280;35016;55.674;37.468;2024-03-17T10:45:59;98994.94;;;8.32;49.44
49178;BME280;35016;55.674;37.468;2024-03-17T10:48:36;98992.81;;;8.34;49.49
49178;BME280;35016;55.674;37.468;2024-03-17T10:51:08;98997.91;;;8.31;49.04
49178;BME280;35016;55.674;37.468;2024-03-17T10:53:46;99001.94;;;8.28;49.15
49178;BME280;35016;55.674;37.468;2024-03-17T10:56:21;98992.16;;;8.22;49.40
49178;BME280;35016;55.674;37.468;2024-03-17T10:58:52;98990.81;;;8.25;49.42
49178;BME280;35016;55.674;37.468;2024-03-17T11:01:23;98989.16;;;8.19;49.13
49178;BME280;35016;55.674;37.468;2024-03-17T11:03:50;98993.16;;;8.11;49.41
49178;BME280;35016;55.674;37.468;2024-03-17T11:06:17;98995.25;;;8.09;49.50
49178;BME280;35016;55.674;37.468;2024-03-17T11:08:48;98987.13;;;8.04;49.48
49178;BME280;35016;55.674;37.468;2024-03-17T11:11:35;98986.81;;;8.00;49.41
49178;BME280;35016;55.674;37.468;2024-03-17T11:14:21;98991.91;;;7.97;49.86
49178;BME280;35016;55.674;37.468;2024-03-17T11:16:59;98981.84;;;7.87;50.00
49178;BME280;35016;55.674;37.468;2024-03-17T11:20:25;98991.78;;;7.82;49.97
49178;BME280;35016;55.674;37.468;2024-03-17T11:22:54;98990.31;;;7.74;49.93
49178;BME280;35016;55.674;37.468;2024-03-17T11:27:53;98990.53;;;7.67;50.00
49178;BME280;35016;55.674;37.468;2024-03-17T11:38:57;98978.06;;;7.39;50.63
49178;BME280;35016;55.674;37.468;2024-03-17T11:41:42;98976.66;;;7.37;50.99
49178;BME280;35016;55.674;37.468;2024-03-17T11:49:22;98981.63;;;7.23;50.98
49178;BME280;35016;55.674;37.468;2024-03-17T11:51:51;98969.13;;;7.17;51.00
49178;BME280;35016;55.674;37.468;2024-03-17T11:54:23;98969.63;;;7.14;51.19
49178;BME280;35016;55.674;37.468;2024-03-17T11:57:04;98972.34;;;7.14;51.75
49178;BME280;35016;55.674;37.468;2024-03-17T11:59:45;98969.88;;;7.12;51.68
49178;BME280;35016;55.674;37.468;2024-03-17T12:02:27;98966.69;;;7.15;51.70
49178;BME280;35016;55.674;37.468;2024-03-17T12:04:56;98970.94;;;7.11;51.21
49178;BME280;35016;55.674;37.468;2024-03-17T12:07:23;98971.72;;;7.07;51.65
49178;BME280;35016;55.674;37.468;2024-03-17T12:09:56;98973.34;;;7.08;52.08
49178;BME280;35016;55.674;37.468;2024-03-17T12:12:25;98965.69;;;7.00;51.80
49178;BME280;35016;55.674;37.468;2024-03-17T12:15:03;98968.38;;;7.00;51.71
49178;BME280;35016;55.674;37.468;2024-03-17T12:17:36;98987.19;;;6.95;52.05
49178;BME280;35016;55.674;37.468;2024-03-17T12:20:02;98981.69;;;6.90;51.71
49178;BME280;35016;55.674;37.468;2024-03-17T12:22:30;98969.47;;;6.82;51.91
49178;BME280;35016;55.674;37.468;2024-03-17T12:25:02;98983.69;;;6.77;51.94
49178;BME280;35016;55.674;37.468;2024-03-17T12:27:32;98976.91;;;6.75;52.34
49178;BME280;35016;55.674;37.468;2024-03-17T12:29:58;98973.41;;;6.74;52.19
49178;BME280;35016;55.674;37.468;2024-03-17T12:32:28;98952.50;;;6.65;52.22
49178;BME280;35016;55.674;37.468;2024-03-17T12:35:17;98953.56;;;6.64;52.95
49178;BME280;35016;55.674;37.468;2024-03-17T12:37:45;98970.31;;;6.66;52.19
49178;BME280;35016;55.674;37.468;2024-03-17T12:40:22;98937.69;;;6.45;52.48
49178;BME280;35016;55.674;37.468;2024-03-17T12:42:59;98946.66;;;6.51;52.26
49178;BME280;35016;55.674;37.468;2024-03-17T12:45:55;98945.03;;;6.50;53.09
49178;BME280;35016;55.674;37.468;2024-03-17T12:48:22;98956.94;;;6.54;52.44
49178;BME280;35016;55.674;37.468;2024-03-17T12:51:14;98946.91;;;6.33;53.46
49178;BME280;35016;55.674;37.468;2024-03-17T12:53:40;98946.56;;;6.29;52.67
49178;BME280;35016;55.674;37.468;2024-03-17T12:56:23;98927.41;;;6.26;53.17
49178;BME280;35016;55.674;37.468;2024-03-17T12:59:19;98958.09;;;6.41;52.66
49178;BME280;35016;55.674;37.468;2024-03-17T13:02:20;98925.03;;;6.29;53.01
49178;BME280;35016;55.674;37.468;2024-03-17T13:04:46;98929.13;;;6.32;53.40
49178;BME280;35016;55.674;37.468;2024-03-17T13:07:12;98929.34;;;6.30;52.90
49178;BME280;35016;55.674;37.468;2024-03-17T13:09:39;98939.06;;;6.31;53.08
49178;BME280;35016;55.674;37.468;2024-03-17T13:12:15;98933.78;;;6.19;54.01
49178;BME280;35016;55.674;37.468;2024-03-17T13:14:45;98925.47;;;6.21;53.33
49178;BME280;35016;55.674;37.468;2024-03-17T13:17:14;98913.47;;;6.12;53.51
49178;BME280;35016;55.674;37.468;2024-03-17T13:20:04;98944.88;;;6.23;53.54
49178;BME280;35016;55.674;37.468;2024-03-17T13:22:33;98947.06;;;6.26;53.63
49178;BME280;35016;55.674;37.468;2024-03-17T13:24:59;98940.06;;;6.25;53.50
49178;BME280;35016;55.674;37.468;2024-03-17T13:27:25;98944.94;;;6.28;53.72
49178;BME280;35016;55.674;37.468;2024-03-17T13:29:51;98940.38;;;6.29;53.84
49178;BME280;35016;55.674;37.468;2024-03-17T13:32:18;98931.25;;;6.30;53.25
49178;BME280;35016;55.674;37.468;2024-03-17T13:34:44;98927.00;;;6.34;53.19
49178;BME280;35016;55.674;37.468;2024-03-17T13:37:11;98910.19;;;6.27;53.06